Time;durP1;ratioP1;P1;durP2;ratioP2;P2;SDS_P1;SDS_P2;PMS_P1;PMS_P2;Temp;Humidity;BMP_temperature;BMP_pressure;BME280_temperature;BME280_humidity;BME280_pressure;Samples;Min_cycle;Max_cycle;Signal;HPM_P1;HPM_P2
2022/05/12 00:00:30;;;;;;;;;;;16.80;99.90;;;;;;5064439;28;19942;-82
2022/05/12 00:02:56;;;;;;;;;;;16.70;99.90;;;;;;5059198;28;19913;-83
2022/05/12 00:05:22;;;;;;;;;;;16.70;99.90;;;;;;5057406;28;19920;-83
2022/05/12 00:07:47;;;;;;;;;;;16.70;99.90;;;;;;5057248;28;20364;-83
2022/05/12 00:10:18;;;;;;;;;;;16.70;99.90;;;;;;5089965;28;19925;-83
2022/05/12 00:12:43;;;;;;;;;;;16.70;99.90;;;;;;5058252;28;19917;-83
2022/05/12 00:15:14;;;;;;;;;;;16.70;99.90;;;;;;5057884;28;20000;-83
2022/05/12 00:17:39;;;;;;;;;;;16.70;99.90;;;;;;5059289;28;19920;-82
2022/05/12 00:20:05;;;;;;;;;;;16.70;99.90;;;;;;5056447;28;19913;-83
2022/05/12 00:22:30;;;;;;;;;;;16.70;99.90;;;;;;5057951;28;19913;-82
2022/05/12 00:24:56;;;;;;;;;;;16.70;99.90;;;;;;5058279;28;19924;-83
2022/05/12 00:27:21;;;;;;;;;;;16.70;1.00;;;;;;5053981;28;19912;-83
2022/05/12 00:29:47;;;;;;;;;;;16.70;56.00;;;;;;5057801;28;20315;-83
2022/05/12 00:32:12;;;;;;;;;;;16.70;1.00;;;;;;5058603;28;19925;-82
2022/05/12 00:34:38;;;;;;;;;;;16.60;1.00;;;;;;5057758;28;19924;-83
2022/05/12 00:37:03;;;;;;;;;;;16.60;99.90;;;;;;5057356;28;19924;-83
2022/05/12 00:39:29;;;;;;;;;;;16.50;99.90;;;;;;5089965;28;20356;-83
2022/05/12 00:41:54;;;;;;;;;;;16.50;99.90;;;;;;5056571;28;19920;-83
2022/05/12 00:44:20;;;;;;;;;;;16.40;99.90;;;;;;5060550;28;19956;-83
2022/05/12 00:46:49;;;;;;;;;;;16.40;99.90;;;;;;5089582;28;19913;-83
2022/05/12 00:49:24;;;;;;;;;;;16.40;99.90;;;;;;5058205;28;19912;-83
2022/05/12 00:51:52;;;;;;;;;;;16.40;99.90;;;;;;5090198;28;20535;-83
2022/05/12 00:54:21;;;;;;;;;;;16.40;99.90;;;;;;5096609;28;19920;-83
2022/05/12 00:56:48;;;;;;;;;;;16.40;99.90;;;;;;5060148;28;19920;-82
2022/05/12 00:59:16;;;;;;;;;;;16.30;1.00;;;;;;5058027;28;19921;-83
2022/05/12 01:01:41;;;;;;;;;;;16.30;99.90;;;;;;5057312;28;19999;-83
2022/05/12 01:04:07;;;;;;;;;;;16.30;1.00;;;;;;5056881;28;19947;-83
2022/05/12 01:06:33;;;;;;;;;;;16.30;1.00;;;;;;5091969;28;19917;-83
2022/05/12 01:08:59;;;;;;;;;;;16.30;42.30;;;;;;5056645;28;19923;-83
2022/05/12 01:11:25;;;;;;;;;;;16.20;1.00;;;;;;5049722;28;19920;-83
2022/05/12 01:13:52;;;;;;;;;;;16.00;1.00;;;;;;5058699;28;19913;-83
2022/05/12 01:16:35;;;;;;;;;;;16.00;99.90;;;;;;5091580;28;19959;-83
2022/05/12 01:19:00;;;;;;;;;;;15.90;1.00;;;;;;5057619;28;20069;-82
2022/05/12 01:21:26;;;;;;;;;;;15.80;99.90;;;;;;5060830;28;20289;-83
2022/05/12 01:23:51;;;;;;;;;;;15.70;1.00;;;;;;5058816;28;19913;-82
2022/05/12 01:26:17;;;;;;;;;;;15.60;99.90;;;;;;5072966;28;20000;-82
2022/05/12 01:28:43;;;;;;;;;;;15.50;1.00;;;;;;5057547;28;20231;-83
2022/05/12 01:31:08;;;;;;;;;;;15.50;1.00;;;;;;5056895;28;19917;-83
2022/05/12 01:33:34;;;;;;;;;;;15.40;1.00;;;;;;5058119;28;19917;-83
2022/05/12 01:36:00;;;;;;;;;;;15.30;99.90;;;;;;5056560;28;19920;-83
2022/05/12 01:38:26;;;;;;;;;;;15.20;99.90;;;;;;5059994;28;19916;-83
2022/05/12 01:40:52;;;;;;;;;;;15.20;99.90;;;;;;5057374;28;19913;-83
2022/05/12 01:43:18;;;;;;;;;;;15.10;1.00;;;;;;5056592;28;20383;-83
2022/05/12 01:45:43;;;;;;;;;;;15.10;1.00;;;;;;5057957;28;20007;-83
2022/05/12 01:48:10;;;;;;;;;;;15.00;1.00;;;;;;5055823;28;19920;-83
2022/05/12 01:50:37;;;;;;;;;;;15.00;78.90;;;;;;5057982;28;20408;-83
2022/05/12 01:53:03;;;;;;;;;;;14.90;59.20;;;;;;5057065;28;19931;-83
2022/05/12 01:55:29;;;;;;;;;;;14.80;14.50;;;;;;5059124;28;19913;-83
2022/05/12 01:57:57;;;;;;;;;;;14.80;1.00;;;;;;5056321;28;19935;-83
2022/05/12 02:00:25;;;;;;;;;;;14.70;1.00;;;;;;5056946;28;19916;-83
2022/05/12 02:02:51;;;;;;;;;;;14.70;1.00;;;;;;5057898;28;19940;-83
2022/05/12 02:05:17;;;;;;;;;;;14.70;1.00;;;;;;5056600;28;19917;-83
2022/05/12 02:07:45;;;;;;;;;;;14.60;1.00;;;;;;5057871;28;19917;-83
2022/05/12 02:10:13;;;;;;;;;;;14.60;1.00;;;;;;5054652;28;19921;-83
2022/05/12 02:12:39;;;;;;;;;;;14.50;1.00;;;;;;5057841;28;19924;-83
2022/05/12 02:15:05;;;;;;;;;;;14.50;1.00;;;;;;5056567;28;19912;-83
2022/05/12 02:17:32;;;;;;;;;;;14.40;1.00;;;;;;5057356;28;20007;-83
2022/05/12 02:19:58;;;;;;;;;;;14.30;99.90;;;;;;5056164;28;20260;-83
2022/05/12 02:22:24;;;;;;;;;;;14.30;99.90;;;;;;5057593;28;19917;-83
2022/05/12 02:24:49;;;;;;;;;;;14.30;99.90;;;;;;5089646;28;20035;-83
2022/05/12 02:27:15;;;;;;;;;;;14.20;1.00;;;;;;5071799;28;19917;-83
2022/05/12 02:29:40;;;;;;;;;;;14.20;1.00;;;;;;5058134;28;19919;-83
2022/05/12 02:32:06;;;;;;;;;;;14.10;1.00;;;;;;5057402;28;19920;-83
2022/05/12 02:34:31;;;;;;;;;;;14.10;1.00;;;;;;5058173;28;19913;-83
2022/05/12 02:37:00;;;;;;;;;;;14.00;1.00;;;;;;5059011;28;20292;-83
2022/05/12 02:39:26;;;;;;;;;;;13.90;99.90;;;;;;5058394;28;20032;-83
2022/05/12 02:41:52;;;;;;;;;;;13.90;99.90;;;;;;5058272;28;19920;-84
2022/05/12 02:44:17;;;;;;;;;;;13.80;99.90;;;;;;5058208;28;19913;-83
2022/05/12 02:46:43;;;;;;;;;;;13.80;99.90;;;;;;5059099;28;19924;-83
2022/05/12 02:49:09;;;;;;;;;;;13.70;1.00;;;;;;5055716;28;19916;-83
2022/05/12 02:51:34;;;;;;;;;;;13.70;1.00;;;;;;5057782;28;20258;-83
2022/05/12 02:54:00;;;;;;;;;;;13.70;1.00;;;;;;5057578;28;19919;-83
2022/05/12 02:56:26;;;;;;;;;;;13.60;1.00;;;;;;5057741;28;20018;-83
2022/05/12 02:58:51;;;;;;;;;;;13.60;1.00;;;;;;5058265;28;19913;-83
2022/05/12 03:01:17;;;;;;;;;;;13.60;1.00;;;;;;5056686;28;19913;-83
2022/05/12 03:03:42;;;;;;;;;;;13.50;1.00;;;;;;5062494;28;19913;-83
2022/05/12 03:06:08;;;;;;;;;;;13.50;1.00;;;;;;5059890;28;19912;-83
2022/05/12 03:08:33;;;;;;;;;;;13.50;1.00;;;;;;5092245;28;19944;-83
2022/05/12 03:10:59;;;;;;;;;;;13.50;1.00;;;;;;5059740;28;19916;-83
2022/05/12 03:13:24;;;;;;;;;;;13.40;1.00;;;;;;5064247;28;20284;-83
2022/05/12 03:15:50;;;;;;;;;;;13.40;1.00;;;;;;5096204;28;19962;-83
2022/05/12 03:18:15;;;;;;;;;;;13.40;1.00;;;;;;5091316;28;19913;-83
2022/05/12 03:20:41;;;;;;;;;;;13.40;1.00;;;;;;5063214;28;19913;-82
2022/05/12 03:23:07;;;;;;;;;;;13.30;22.80;;;;;;5059667;28;20331;-83
2022/05/12 03:25:32;;;;;;;;;;;13.30;55.70;;;;;;5058605;28;19920;-83
2022/05/12 03:27:59;;;;;;;;;;;13.30;29.40;;;;;;5061518;28;19924;-83
2022/05/12 03:30:25;;;;;;;;;;;13.30;24.80;;;;;;5094150;28;19913;-83
2022/05/12 03:32:51;;;;;;;;;;;13.30;1.00;;;;;;5060652;28;19935;-83
2022/05/12 03:35:16;;;;;;;;;;;13.20;5.50;;;;;;5065869;28;20289;-83
2022/05/12 03:37:42;;;;;;;;;;;13.20;1.00;;;;;;5061914;28;19952;-82
2022/05/12 03:40:09;;;;;;;;;;;13.20;1.00;;;;;;5057853;28;19913;-83
2022/05/12 03:42:34;;;;;;;;;;;13.20;1.00;;;;;;5063163;28;19913;-83
2022/05/12 03:45:00;;;;;;;;;;;13.20;1.00;;;;;;5060851;28;19913;-83
2022/05/12 03:47:27;;;;;;;;;;;13.20;1.00;;;;;;5060501;28;19974;-83
2022/05/12 03:49:54;;;;;;;;;;;13.20;1.00;;;;;;5060635;28;19913;-82
2022/05/12 03:52:20;;;;;;;;;;;13.20;1.00;;;;;;5061094;28;19917;-83
2022/05/12 03:54:47;;;;;;;;;;;13.20;1.00;;;;;;5061511;28;19960;-83
2022/05/12 03:57:13;;;;;;;;;;;13.20;1.00;;;;;;5058380;28;19931;-83
2022/05/12 03:59:39;;;;;;;;;;;13.20;99.90;;;;;;5066057;28;19935;-83
2022/05/12 04:02:09;;;;;;;;;;;13.20;99.90;;;;;;5068821;28;19912;-83
2022/05/12 04:04:37;;;;;;;;;;;13.20;99.90;;;;;;5057321;28;19913;-83
2022/05/12 04:07:02;;;;;;;;;;;13.20;99.90;;;;;;5090538;28;19931;-83
2022/05/12 04:09:28;;;;;;;;;;;13.30;99.90;;;;;;5058917;28;19912;-83
2022/05/12 04:11:54;;;;;;;;;;;13.30;1.00;;;;;;5060485;28;19924;-82
2022/05/12 04:14:20;;;;;;;;;;;13.30;1.00;;;;;;5058426;28;19917;-83
2022/05/12 04:16:45;;;;;;;;;;;13.30;1.00;;;;;;5059336;28;19920;-83
2022/05/12 04:19:11;;;;;;;;;;;13.40;1.00;;;;;;5056394;28;19912;-83
2022/05/12 04:21:37;;;;;;;;;;;13.40;99.90;;;;;;5060794;28;19917;-83
2022/05/12 04:24:04;;;;;;;;;;;13.50;99.90;;;;;;5058376;28;19924;-83
2022/05/12 04:26:29;;;;;;;;;;;13.50;1.00;;;;;;5061193;28;19924;-83
2022/05/12 04:28:54;;;;;;;;;;;13.70;1.00;;;;;;5059870;28;19959;-83
2022/05/12 04:31:20;;;;;;;;;;;13.80;99.90;;;;;;5059570;28;19952;-83
2022/05/12 04:36:30;;;;;;;;;;;14.00;99.90;;;;;;5059561;28;19959;-83
2022/05/12 04:38:55;;;;;;;;;;;14.10;99.90;;;;;;5091245;28;19908;-83
2022/05/12 04:41:21;;;;;;;;;;;14.30;1.00;;;;;;5074065;28;19917;-83
2022/05/12 04:43:46;;;;;;;;;;;14.40;99.90;;;;;;5092055;28;19923;-83
2022/05/12 04:46:11;;;;;;;;;;;14.40;99.90;;;;;;5056119;28;19909;-83
2022/05/12 04:48:37;;;;;;;;;;;14.30;37.80;;;;;;5058669;28;19935;-83
2022/05/12 04:51:03;;;;;;;;;;;14.40;1.00;;;;;;5059372;28;19913;-83
2022/05/12 04:53:29;;;;;;;;;;;14.40;1.00;;;;;;5060070;28;19916;-83
2022/05/12 04:55:54;;;;;;;;;;;14.50;1.00;;;;;;5060482;28;19909;-82
2022/05/12 04:58:20;;;;;;;;;;;14.60;1.00;;;;;;5056186;28;19917;-83
2022/05/12 05:00:45;;;;;;;;;;;14.70;99.90;;;;;;5060577;28;19931;-83
2022/05/12 05:03:11;;;;;;;;;;;14.80;99.90;;;;;;5058850;28;19920;-84
2022/05/12 05:05:37;;;;;;;;;;;15.00;1.00;;;;;;5058972;28;19916;-83
2022/05/12 05:08:03;;;;;;;;;;;15.20;1.00;;;;;;5055654;28;19962;-83
2022/05/12 05:10:29;;;;;;;;;;;15.40;99.90;;;;;;5059196;28;19921;-83
2022/05/12 05:12:55;;;;;;;;;;;15.50;99.90;;;;;;5059409;28;19927;-83
2022/05/12 05:15:21;;;;;;;;;;;15.60;99.90;;;;;;5057469;28;19921;-83
2022/05/12 05:17:47;;;;;;;;;;;15.60;56.60;;;;;;5055326;28;19944;-83
2022/05/12 05:20:14;;;;;;;;;;;15.70;99.90;;;;;;5055614;28;19978;-83
2022/05/12 05:22:40;;;;;;;;;;;15.80;99.90;;;;;;5054149;28;20291;-84
2022/05/12 05:25:06;;;;;;;;;;;15.90;99.90;;;;;;5059597;28;19917;-83
2022/05/12 05:27:36;;;;;;;;;;;16.00;99.90;;;;;;5059735;28;19912;-83
2022/05/12 05:30:02;;;;;;;;;;;16.00;99.90;;;;;;5059462;28;20362;-83
2022/05/12 05:32:27;;;;;;;;;;;16.20;99.90;;;;;;5058327;28;20012;-84
2022/05/12 05:34:53;;;;;;;;;;;16.40;25.60;;;;;;5092392;28;19944;-80
2022/05/12 05:37:18;;;;;;;;;;;16.60;1.00;;;;;;5052506;28;19919;-80
2022/05/12 05:39:44;;;;;;;;;;;17.10;1.00;;;;;;5051184;28;20261;-81
2022/05/12 05:42:12;;;;;;;;;;;17.90;99.90;;;;;;5051357;28;19913;-81
2022/05/12 05:44:37;;;;;;;;;;;19.20;67.80;;;;;;5052986;28;19920;-82
2022/05/12 05:47:03;;;;;;;;;;;21.70;1.00;;;;;;5054060;28;19912;-82
2022/05/12 05:49:30;;;;;;;;;;;23.70;99.90;;;;;;5055454;28;19914;-81
2022/05/12 05:54:39;;;;;;;;;;;27.70;99.90;;;;;;5054090;28;19958;-80
2022/05/12 05:57:05;;;;;;;;;;;29.30;99.90;;;;;;5054280;28;19913;-80
2022/05/12 05:59:30;;;;;;;;;;;30.70;99.90;;;;;;5052784;28;20082;-82
2022/05/12 06:01:57;;;;;;;;;;;31.30;99.90;;;;;;5055997;28;19948;-80
2022/05/12 06:04:22;;;;;;;;;;;32.60;99.90;;;;;;5058213;28;19917;-81
2022/05/12 06:06:48;;;;;;;;;;;33.90;99.90;;;;;;5056736;28;19912;-81
2022/05/12 06:09:14;;;;;;;;;;;34.30;99.90;;;;;;5062069;28;19949;-81
2022/05/12 06:11:44;;;;;;;;;;;34.40;99.90;;;;;;5053935;28;20170;-80
2022/05/12 06:14:10;;;;;;;;;;;35.00;99.90;;;;;;5085030;28;20357;-82
2022/05/12 06:16:35;;;;;;;;;;;35.40;99.90;;;;;;5054401;28;19913;-80
2022/05/12 06:19:01;;;;;;;;;;;35.90;99.90;;;;;;5052397;28;19920;-82
2022/05/12 06:21:27;;;;;;;;;;;36.80;99.90;;;;;;5051903;28;19919;-81
2022/05/12 06:23:53;;;;;;;;;;;37.70;99.90;;;;;;5052175;28;19913;-82
2022/05/12 06:26:20;;;;;;;;;;;38.60;99.90;;;;;;5051293;28;19913;-82
2022/05/12 06:28:46;;;;;;;;;;;39.30;99.90;;;;;;5052584;28;19952;-82
2022/05/12 06:31:19;;;;;;;;;;;40.90;99.90;;;;;;5053126;28;19925;-82
2022/05/12 06:33:45;;;;;;;;;;;41.80;99.90;;;;;;5050177;28;19913;-80
2022/05/12 06:36:10;;;;;;;;;;;42.60;99.90;;;;;;5055642;28;19967;-81
2022/05/12 06:38:38;;;;;;;;;;;43.70;99.90;;;;;;5055670;28;20278;-81
2022/05/12 06:41:04;;;;;;;;;;;44.10;99.90;;;;;;5058847;28;19912;-80
2022/05/12 06:43:29;;;;;;;;;;;44.90;99.90;;;;;;5056886;28;19992;-80
2022/05/12 06:45:56;;;;;;;;;;;45.50;99.90;;;;;;5055975;28;19985;-81
2022/05/12 06:48:25;;;;;;;;;;;45.60;99.90;;;;;;5052640;28;19921;-80
2022/05/12 06:50:51;;;;;;;;;;;46.20;99.90;;;;;;5056545;28;19913;-80
2022/05/12 06:53:16;;;;;;;;;;;46.20;99.90;;;;;;5057077;28;19924;-81
2022/05/12 06:55:42;;;;;;;;;;;46.50;99.90;;;;;;5052804;28;19924;-80
2022/05/12 06:58:09;;;;;;;;;;;46.30;99.90;;;;;;5056661;28;19923;-81
2022/05/12 07:00:34;;;;;;;;;;;47.00;99.90;;;;;;5070911;28;19913;-81
2022/05/12 07:03:00;;;;;;;;;;;47.40;99.90;;;;;;5056286;28;19913;-81
2022/05/12 07:05:26;;;;;;;;;;;47.60;99.90;;;;;;5043982;28;19999;-81
2022/05/12 07:07:52;;;;;;;;;;;48.30;99.90;;;;;;5054829;28;19912;-81
2022/05/12 07:10:18;;;;;;;;;;;48.00;99.90;;;;;;5056212;28;19928;-81
2022/05/12 07:12:44;;;;;;;;;;;47.80;99.90;;;;;;5091052;28;19916;-81
2022/05/12 07:15:10;;;;;;;;;;;48.00;99.90;;;;;;5052724;28;19920;-81
2022/05/12 07:17:38;;;;;;;;;;;48.40;99.90;;;;;;5054765;28;19985;-81
2022/05/12 07:28:18;;;;;;;;;;;40.50;99.90;;;;;;5051097;28;19967;-79
2022/05/12 07:31:02;;;;;;;;;;;39.50;99.90;;;;;;5047429;28;19924;-80
2022/05/12 07:33:31;;;;;;;;;;;40.80;99.90;;;;;;5053404;28;19921;-83
2022/05/12 07:36:19;;;;;;;;;;;43.20;99.90;;;;;;5094123;28;19944;-84
2022/05/12 07:38:45;;;;;;;;;;;44.00;99.90;;;;;;5057109;28;19913;-84
2022/05/12 07:41:12;;;;;;;;;;;44.00;99.90;;;;;;5057496;28;19913;-83
2022/05/12 07:43:41;;;;;;;;;;;43.60;99.90;;;;;;5062916;28;19940;-84
2022/05/12 07:46:07;;;;;;;;;;;42.90;99.90;;;;;;5078825;28;19917;-83
2022/05/12 07:48:33;;;;;;;;;;;43.30;99.90;;;;;;5063796;28;19913;-83
2022/05/12 07:50:58;;;;;;;;;;;43.80;99.90;;;;;;5065362;28;20011;-83
2022/05/12 07:53:24;;;;;;;;;;;42.90;99.90;;;;;;5065551;28;19960;-82
2022/05/12 07:55:50;;;;;;;;;;;39.90;99.90;;;;;;5064208;28;19936;-82
2022/05/12 07:58:15;;;;;;;;;;;39.40;99.90;;;;;;5055662;28;19928;-83
2022/05/12 08:00:41;;;;;;;;;;;40.50;99.90;;;;;;5063819;28;19909;-83
2022/05/12 08:03:07;;;;;;;;;;;41.60;99.90;;;;;;5055600;28;20593;-83
2022/05/12 08:05:32;;;;;;;;;;;42.70;99.90;;;;;;5057127;28;19913;-82
2022/05/12 08:07:58;;;;;;;;;;;42.90;99.90;;;;;;5055281;28;19913;-83
2022/05/12 08:10:23;;;;;;;;;;;43.30;99.90;;;;;;5056375;28;19982;-83
2022/05/12 08:12:49;;;;;;;;;;;43.40;99.90;;;;;;5055584;28;19956;-83
2022/05/12 08:15:15;;;;;;;;;;;42.20;99.90;;;;;;5064142;28;19981;-82
2022/05/12 08:17:40;;;;;;;;;;;39.50;99.90;;;;;;5059755;28;19948;-82
2022/05/12 08:20:06;;;;;;;;;;;40.10;99.90;;;;;;5060153;28;20345;-83
2022/05/12 08:22:33;;;;;;;;;;;37.90;99.90;;;;;;5057839;28;19913;-82
2022/05/12 08:24:58;;;;;;;;;;;35.50;98.60;;;;;;5062496;28;19961;-82
2022/05/12 08:27:25;;;;;;;;;;;33.70;96.10;;;;;;5064822;28;20419;-82
2022/05/12 08:29:53;;;;;;;;;;;34.30;99.60;;;;;;5059359;28;19912;-82
2022/05/12 08:32:19;;;;;;;;;;;32.70;96.80;;;;;;5062790;28;19966;-82
2022/05/12 08:34:44;;;;;;;;;;;30.90;94.80;;;;;;5057014;28;19917;-81
2022/05/12 08:37:10;;;;;;;;;;;29.50;92.00;;;;;;5060424;28;19909;-82
2022/05/12 08:39:36;;;;;;;;;;;29.90;94.50;;;;;;5064739;28;19916;-82
2022/05/12 08:42:07;;;;;;;;;;;33.60;99.90;;;;;;5067283;28;20398;-83
2022/05/12 08:44:36;;;;;;;;;;;36.20;99.90;;;;;;5055358;28;19919;-83
2022/05/12 08:47:06;;;;;;;;;;;37.10;99.90;;;;;;5096413;28;19955;-82
2022/05/12 08:49:35;;;;;;;;;;;36.80;99.90;;;;;;5058332;28;19920;-82
2022/05/12 08:52:20;;;;;;;;;;;34.40;99.90;;;;;;5094118;28;20301;-81
2022/05/12 08:55:04;;;;;;;;;;;34.20;99.90;;;;;;5097946;28;19951;-82
2022/05/12 08:57:52;;;;;;;;;;;37.50;99.90;;;;;;5056330;28;20288;-82
2022/05/12 09:00:20;;;;;;;;;;;36.90;99.90;;;;;;5056444;28;19935;-83
2022/05/12 09:02:59;;;;;;;;;;;36.20;99.90;;;;;;5056100;28;19917;-82
2022/05/12 09:05:40;;;;;;;;;;;37.80;99.90;;;;;;5056413;28;19913;-82
2022/05/12 09:08:38;;;;;;;;;;;38.20;99.90;;;;;;5093575;28;19948;-82
2022/05/12 09:11:14;;;;;;;;;;;35.80;99.90;;;;;;5067294;28;19912;-82
2022/05/12 09:13:43;;;;;;;;;;;34.20;99.90;;;;;;5061740;28;19921;-82
2022/05/12 09:16:23;;;;;;;;;;;32.90;99.60;;;;;;5060347;28;19908;-82
2022/05/12 09:18:58;;;;;;;;;;;;;;;;;;;;;
2022/05/12 09:21:35;;;;;;;;;;;34.30;99.90;;;;;;5062459;28;20015;-82
2022/05/12 09:24:03;;;;;;;;;;;36.20;99.90;;;;;;5062192;28;19912;-82
2022/05/12 09:26:34;;;;;;;;;;;37.50;99.90;;;;;;5070335;28;20357;-82
2022/05/12 09:29:08;;;;;;;;;;;38.40;99.90;;;;;;5080721;28;19972;-82
2022/05/12 09:31:34;;;;;;;;;;;39.30;99.90;;;;;;5059315;28;19913;-82
2022/05/12 09:34:12;;;;;;;;;;;39.60;99.90;;;;;;5058964;28;20292;-82
2022/05/12 09:36:38;;;;;;;;;;;40.20;99.90;;;;;;5051943;28;19959;-82
2022/05/12 09:39:03;;;;;;;;;;;40.50;99.90;;;;;;5054284;28;20270;-82
2022/05/12 09:41:39;;;;;;;;;;;40.40;99.90;;;;;;5055323;28;19913;-81
2022/05/12 09:44:17;;;;;;;;;;;40.00;99.90;;;;;;5055835;28;19974;-82
2022/05/12 09:46:54;;;;;;;;;;;37.90;99.90;;;;;;5090594;28;19920;-82
2022/05/12 09:49:21;;;;;;;;;;;37.70;99.90;;;;;;5066340;28;19966;-82
2022/05/12 09:51:46;;;;;;;;;;;38.10;99.90;;;;;;5056473;28;19924;-82
2022/05/12 09:54:15;;;;;;;;;;;36.60;99.90;;;;;;5057127;28;19912;-82
2022/05/12 09:56:41;;;;;;;;;;;34.70;97.00;;;;;;5063047;28;19938;-81
2022/05/12 09:59:15;;;;;;;;;;;33.10;94.80;;;;;;5059706;28;20012;-82
2022/05/12 10:01:51;;;;;;;;;;;31.80;93.30;;;;;;5063160;28;20411;-81
2022/05/12 10:09:59;;;;;;;;;;;33.20;99.00;;;;;;5056895;28;19924;-83
2022/05/12 10:12:28;;;;;;;;;;;32.20;97.50;;;;;;5061012;28;19917;-82
2022/05/12 10:14:59;;;;;;;;;;;32.50;98.10;;;;;;5057449;28;19920;-82
2022/05/12 10:17:33;;;;;;;;;;;32.70;98.70;;;;;;5060124;28;19920;-80
2022/05/12 10:20:04;;;;;;;;;;;31.90;97.20;;;;;;5073870;28;19919;-85
2022/05/12 10:22:37;;;;;;;;;;;32.40;99.90;;;;;;5090623;28;19920;-83
2022/05/12 10:25:05;;;;;;;;;;;33.20;99.90;;;;;;5055024;28;19921;-83
2022/05/12 10:27:46;;;;;;;;;;;34.00;99.90;;;;;;5058534;28;20324;-83
2022/05/12 10:30:34;;;;;;;;;;;35.20;99.90;;;;;;5087897;28;20304;-83
2022/05/12 10:33:02;;;;;;;;;;;36.20;99.90;;;;;;5053787;28;19927;-83
2022/05/12 10:35:33;;;;;;;;;;;37.30;99.90;;;;;;5087046;28;19920;-83
2022/05/12 10:38:12;;;;;;;;;;;38.20;99.90;;;;;;5083686;28;20526;-83
2022/05/12 10:40:41;;;;;;;;;;;38.90;99.90;;;;;;5056364;28;19920;-83
2022/05/12 10:43:09;;;;;;;;;;;39.30;99.90;;;;;;5051221;28;19917;-83
2022/05/12 10:45:43;;;;;;;;;;;37.70;99.90;;;;;;5092162;28;19916;-83
2022/05/12 10:48:22;;;;;;;;;;;36.70;99.90;;;;;;5090281;28;20039;-83
2022/05/12 10:51:01;;;;;;;;;;;37.30;99.90;;;;;;5058794;28;19912;-82
2022/05/12 10:53:39;;;;;;;;;;;37.10;99.90;;;;;;5057284;28;19979;-83
2022/05/12 10:56:08;;;;;;;;;;;37.10;99.90;;;;;;5060452;28;19909;-83
2022/05/12 10:58:52;;;;;;;;;;;37.50;99.90;;;;;;5053104;28;19922;-84
2022/05/12 11:01:20;;;;;;;;;;;37.00;99.90;;;;;;5084128;28;19916;-84
2022/05/12 11:03:51;;;;;;;;;;;36.30;99.90;;;;;;5058755;28;19924;-83
2022/05/12 11:06:19;;;;;;;;;;;33.50;95.00;;;;;;5064034;28;19909;-82
2022/05/12 11:08:47;;;;;;;;;;;33.40;95.20;;;;;;5061977;28;19916;-83
2022/05/12 11:11:16;;;;;;;;;;;34.70;98.30;;;;;;5060006;28;19939;-83
2022/05/12 11:13:53;;;;;;;;;;;35.50;99.90;;;;;;5086045;28;19982;-83
2022/05/12 11:16:26;;;;;;;;;;;35.40;99.80;;;;;;5057143;28;19916;-83
2022/05/12 11:19:10;;;;;;;;;;;35.50;99.80;;;;;;5058725;28;20377;-83
2022/05/12 11:21:39;;;;;;;;;;;35.40;99.50;;;;;;5101350;28;19957;-85
2022/05/12 11:24:23;;;;;;;;;;;36.00;99.90;;;;;;5059898;28;19952;-83
2022/05/12 11:26:54;;;;;;;;;;;35.10;99.10;;;;;;5067129;28;19917;-81
2022/05/12 11:29:44;;;;;;;;;;;33.90;96.00;;;;;;5058027;28;19919;-83
2022/05/12 11:32:25;;;;;;;;;;;33.80;95.70;;;;;;5057622;28;19924;-82
2022/05/12 11:35:00;;;;;;;;;;;33.10;95.00;;;;;;5095294;28;19992;-83
2022/05/12 11:37:33;;;;;;;;;;;32.50;93.50;;;;;;5069066;28;19913;-82
2022/05/12 11:40:09;;;;;;;;;;;33.00;95.20;;;;;;5060393;28;19912;-82
2022/05/12 11:45:42;;;;;;;;;;;33.50;96.80;;;;;;5066007;28;20433;-83
2022/05/12 11:48:14;;;;;;;;;;;34.20;97.20;;;;;;5061469;28;20001;-82
2022/05/12 11:50:57;;;;;;;;;;;33.70;96.60;;;;;;5093275;28;19913;-82
2022/05/12 11:53:24;;;;;;;;;;;34.10;97.70;;;;;;5052234;28;20011;-82
2022/05/12 11:56:02;;;;;;;;;;;33.90;97.00;;;;;;5067148;28;19916;-81
2022/05/12 11:58:48;;;;;;;;;;;33.20;96.40;;;;;;5060593;28;19908;-83
2022/05/12 12:01:34;;;;;;;;;;;33.10;95.60;;;;;;5090219;28;19959;-83
2022/05/12 12:04:00;;;;;;;;;;;32.10;93.70;;;;;;5051551;28;19976;-81
2022/05/12 12:06:35;;;;;;;;;;;31.80;93.00;;;;;;5056553;28;19921;-82
2022/05/12 12:09:20;;;;;;;;;;;31.40;92.40;;;;;;5054971;28;19913;-82
2022/05/12 12:11:46;;;;;;;;;;;32.00;94.30;;;;;;5069506;28;19917;-83
2022/05/12 12:14:31;;;;;;;;;;;32.60;95.50;;;;;;5057789;28;19963;-81
2022/05/12 12:17:03;;;;;;;;;;;32.50;95.80;;;;;;5053667;28;19912;-82
2022/05/12 12:19:46;;;;;;;;;;;31.40;93.20;;;;;;5053331;28;20418;-81
2022/05/12 12:22:18;;;;;;;;;;;31.20;92.80;;;;;;5057742;28;19917;-81
2022/05/12 12:24:50;;;;;;;;;;;31.10;93.50;;;;;;5089861;28;19916;-81
2022/05/12 12:27:18;;;;;;;;;;;31.10;93.50;;;;;;5051398;28;20008;-81
2022/05/12 12:29:47;;;;;;;;;;;30.50;92.40;;;;;;5059446;28;19920;-80
2022/05/12 12:32:27;;;;;;;;;;;30.50;92.70;;;;;;5051641;28;20293;-82
2022/05/12 12:34:54;;;;;;;;;;;31.30;94.50;;;;;;5085352;28;19944;-80
2022/05/12 12:37:38;;;;;;;;;;;31.60;95.70;;;;;;5052142;28;19924;-81
2022/05/12 12:40:23;;;;;;;;;;;31.20;95.10;;;;;;5088179;28;19920;-81
2022/05/12 12:42:49;;;;;;;;;;;30.80;94.40;;;;;;5052221;28;19944;-81
2022/05/12 12:45:17;;;;;;;;;;;30.50;93.10;;;;;;5086657;28;19967;-83
2022/05/12 12:47:58;;;;;;;;;;;30.30;93.50;;;;;;5056825;28;19999;-81
2022/05/12 12:50:35;;;;;;;;;;;29.60;91.70;;;;;;5050929;28;19919;-82
2022/05/12 12:53:01;;;;;;;;;;;29.00;91.20;;;;;;5091581;28;19955;-82
2022/05/12 12:58:36;;;;;;;;;;;29.10;92.60;;;;;;5057499;28;19974;-83
2022/05/12 13:01:03;;;;;;;;;;;29.60;94.20;;;;;;5055657;28;19909;-81
2022/05/12 13:03:30;;;;;;;;;;;30.10;95.80;;;;;;5050401;28;20003;-82
2022/05/12 13:06:09;;;;;;;;;;;29.80;95.70;;;;;;5084436;28;19924;-81
2022/05/12 13:08:34;;;;;;;;;;;30.00;95.40;;;;;;5085881;28;19912;-82
2022/05/12 13:11:02;;;;;;;;;;;30.00;95.70;;;;;;5058775;28;19908;-81
2022/05/12 13:13:28;;;;;;;;;;;29.20;94.10;;;;;;5066339;28;20167;-81
2022/05/12 13:15:56;;;;;;;;;;;29.20;93.80;;;;;;5055479;28;19913;-80
2022/05/12 13:18:26;;;;;;;;;;;29.20;93.90;;;;;;5049618;28;19965;-81
2022/05/12 13:20:52;;;;;;;;;;;29.30;94.50;;;;;;5054591;28;20285;-81
2022/05/12 13:23:21;;;;;;;;;;;29.30;94.90;;;;;;5060788;28;19917;-81
2022/05/12 13:25:47;;;;;;;;;;;29.30;95.00;;;;;;5090610;28;19967;-80
2022/05/12 13:28:16;;;;;;;;;;;29.40;95.20;;;;;;5088246;28;20361;-82
2022/05/12 13:30:42;;;;;;;;;;;29.30;95.10;;;;;;5055394;28;19974;-82
2022/05/12 13:33:08;;;;;;;;;;;29.10;94.60;;;;;;5085753;28;19936;-81
2022/05/12 13:35:34;;;;;;;;;;;28.90;99.90;;;;;;5085835;28;19917;-82
2022/05/12 13:38:02;;;;;;;;;;;28.90;94.60;;;;;;5053736;28;19913;-82
2022/05/12 13:40:43;;;;;;;;;;;29.30;95.70;;;;;;5083467;28;19966;-81
2022/05/12 13:43:23;;;;;;;;;;;29.30;95.30;;;;;;5054268;28;20435;-80
2022/05/12 13:46:03;;;;;;;;;;;29.10;95.30;;;;;;5053139;28;19917;-81
2022/05/12 13:48:30;;;;;;;;;;;28.40;93.60;;;;;;5054339;28;19913;-81
2022/05/12 13:50:57;;;;;;;;;;;28.90;94.80;;;;;;5051180;28;20408;-82
2022/05/12 13:53:23;;;;;;;;;;;29.30;95.90;;;;;;5051598;28;19917;-82
2022/05/12 13:56:04;;;;;;;;;;;28.80;94.40;;;;;;5057827;28;19975;-81
2022/05/12 13:58:29;;;;;;;;;;;28.40;93.70;;;;;;5059140;28;19909;-81
2022/05/12 14:00:55;;;;;;;;;;;28.20;93.50;;;;;;5051180;28;19923;-82
2022/05/12 14:03:32;;;;;;;;;;;28.30;93.90;;;;;;5086473;28;19940;-81
2022/05/12 14:06:18;;;;;;;;;;;28.50;94.40;;;;;;5088100;28;20011;-80
2022/05/12 14:08:44;;;;;;;;;;;28.30;94.20;;;;;;5055489;28;19917;-81
2022/05/12 14:11:14;;;;;;;;;;;27.80;92.60;;;;;;5057770;28;19909;-81
2022/05/12 14:19:16;;;;;;;;;;;27.10;92.60;;;;;;5056695;28;19927;-82
2022/05/12 14:21:46;;;;;;;;;;;27.00;91.70;;;;;;5053840;28;19909;-82
2022/05/12 14:24:11;;;;;;;;;;;26.90;92.10;;;;;;5054918;28;19938;-81
2022/05/12 14:26:37;;;;;;;;;;;26.80;91.70;;;;;;5056521;28;19921;-83
2022/05/12 14:29:02;;;;;;;;;;;26.70;91.90;;;;;;5057593;28;19940;-81
2022/05/12 14:31:28;;;;;;;;;;;26.80;91.80;;;;;;5051642;28;19970;-82
2022/05/12 14:33:54;;;;;;;;;;;26.80;92.50;;;;;;5056264;28;19940;-81
2022/05/12 14:36:19;;;;;;;;;;;26.70;92.50;;;;;;5057202;28;19913;-81
2022/05/12 14:38:47;;;;;;;;;;;26.70;92.70;;;;;;5069018;28;20003;-82
2022/05/12 14:41:13;;;;;;;;;;;26.80;93.70;;;;;;5060366;28;19913;-81
2022/05/12 14:43:38;;;;;;;;;;;26.50;92.60;;;;;;5059067;28;19909;-81
2022/05/12 14:46:04;;;;;;;;;;;26.40;92.30;;;;;;5057967;28;20400;-81
2022/05/12 14:48:29;;;;;;;;;;;26.10;92.20;;;;;;5058981;28;20411;-81
2022/05/12 14:50:55;;;;;;;;;;;26.00;92.10;;;;;;5050150;28;19917;-81
2022/05/12 14:53:20;;;;;;;;;;;25.80;92.20;;;;;;5052454;28;19913;-82
2022/05/12 14:55:45;;;;;;;;;;;25.30;90.80;;;;;;5059560;28;19919;-81
2022/05/12 14:58:11;;;;;;;;;;;25.40;91.20;;;;;;5060780;28;19924;-81
2022/05/12 15:00:38;;;;;;;;;;;25.30;91.10;;;;;;5060521;28;19920;-82